Time;durP1;ratioP1;P1;durP2;ratioP2;P2;SDS_P1;SDS_P2;PMS_P1;PMS_P2;Temp;Humidity;BMP_temperature;BMP_pressure;BME280_temperature;BME280_humidity;BME280_pressure;Samples;Min_cycle;Max_cycle;Signal;HPM_P1;HPM_P2
2021/12/20 00:00:47;;;;;;;21.52;4.10;;;9.00;99.90;;;;;;4935146;29;20034;-71
2021/12/20 00:03:14;;;;;;;18.27;3.38;;;9.00;99.90;;;;;;4935635;29;20159;-72
2021/12/20 00:05:40;;;;;;;16.00;2.60;;;8.90;99.90;;;;;;4935091;29;20020;-71
2021/12/20 00:08:06;;;;;;;17.55;3.00;;;8.90;99.90;;;;;;4934965;29;20031;-71
2021/12/20 00:10:32;;;;;;;14.50;3.28;;;9.00;99.90;;;;;;4934946;29;20047;-71
2021/12/20 00:12:57;;;;;;;23.80;3.88;;;9.00;99.90;;;;;;4935280;29;20032;-72
2021/12/20 00:15:23;;;;;;;18.48;4.75;;;9.00;99.90;;;;;;4936980;29;20035;-71
2021/12/20 00:17:49;;;;;;;22.45;4.53;;;9.00;99.90;;;;;;4941331;29;20035;-71
2021/12/20 00:20:15;;;;;;;26.63;4.03;;;8.90;99.90;;;;;;4956607;29;20027;-72
2021/12/20 00:22:41;;;;;;;16.70;3.30;;;8.90;99.90;;;;;;4956581;29;20046;-72
2021/12/20 00:25:07;;;;;;;23.30;4.68;;;8.90;99.90;;;;;;4956635;29;20403;-71
2021/12/20 00:27:33;;;;;;;21.17;4.35;;;8.90;99.90;;;;;;4956643;29;20031;-72
2021/12/20 00:29:59;;;;;;;25.38;5.28;;;9.00;99.90;;;;;;4956667;29;20078;-72
2021/12/20 00:32:25;;;;;;;26.33;5.25;;;9.00;99.90;;;;;;4956488;29;20070;-70
2021/12/20 00:34:51;;;;;;;16.60;3.55;;;9.00;99.90;;;;;;4956276;29;20493;-72
2021/12/20 00:42:50;;;;;;;23.33;3.03;;;9.00;99.90;;;;;;4955108;29;20412;-70
2021/12/20 00:45:18;;;;;;;27.70;3.92;;;9.00;99.90;;;;;;4953682;29;20015;-71
2021/12/20 00:47:44;;;;;;;21.00;3.85;;;9.00;99.90;;;;;;4938974;29;20038;-70
2021/12/20 00:50:13;;;;;;;21.75;3.67;;;9.00;99.90;;;;;;4956181;29;20047;-71
2021/12/20 00:52:40;;;;;;;20.45;3.80;;;9.00;99.90;;;;;;4953769;29;20042;-71
2021/12/20 00:55:07;;;;;;;21.77;3.75;;;9.00;99.90;;;;;;4956398;29;20023;-72
2021/12/20 00:57:32;;;;;;;15.30;3.00;;;9.00;99.90;;;;;;4956331;29;20097;-72
2021/12/20 00:59:58;;;;;;;13.68;2.90;;;9.00;99.90;;;;;;4955811;28;20491;-71
2021/12/20 01:02:23;;;;;;;27.15;5.65;;;9.00;99.90;;;;;;4955626;29;20055;-72
2021/12/20 01:04:49;;;;;;;21.33;3.50;;;9.00;99.90;;;;;;4956209;29;20038;-71
2021/12/20 01:07:15;;;;;;;14.48;3.25;;;9.00;99.90;;;;;;4956034;29;20027;-71
2021/12/20 01:09:40;;;;;;;21.30;3.50;;;9.00;99.90;;;;;;4955760;29;20031;-71
2021/12/20 01:12:14;;;;;;;17.88;2.92;;;9.00;99.90;;;;;;4955952;29;20031;-71
2021/12/20 01:14:40;;;;;;;23.02;4.00;;;9.00;99.90;;;;;;4957157;29;20034;-71
2021/12/20 01:17:06;;;;;;;23.63;4.68;;;9.00;99.90;;;;;;4957302;29;20379;-70
2021/12/20 01:19:37;;;;;;;18.63;3.53;;;9.00;99.90;;;;;;4957124;29;20482;-71
2021/12/20 01:22:04;;;;;;;26.00;5.23;;;9.00;99.90;;;;;;4957197;29;20046;-71
2021/12/20 01:24:30;;;;;;;22.92;3.58;;;8.90;99.90;;;;;;4956836;29;20389;-70
2021/12/20 01:26:56;;;;;;;18.73;3.10;;;8.90;99.90;;;;;;4956585;28;20110;-70
2021/12/20 01:29:22;;;;;;;31.13;3.85;;;8.90;99.90;;;;;;4956419;29;20031;-71
2021/12/20 01:31:48;;;;;;;22.60;3.45;;;8.90;99.90;;;;;;4956790;29;20043;-70
2021/12/20 01:34:13;;;;;;;23.98;3.80;;;8.90;99.90;;;;;;4956789;29;20038;-70
2021/12/20 01:36:39;;;;;;;23.77;4.05;;;8.90;99.90;;;;;;4956556;29;20110;-71
2021/12/20 01:39:05;;;;;;;25.30;4.45;;;8.80;99.90;;;;;;4956609;29;20082;-72
2021/12/20 01:41:37;;;;;;;26.23;4.80;;;8.80;99.90;;;;;;4956708;29;20038;-70
2021/12/20 01:44:03;;;;;;;24.52;3.15;;;8.80;99.90;;;;;;4956275;29;20027;-70
2021/12/20 01:46:28;;;;;;;23.92;3.75;;;8.80;99.90;;;;;;4956584;29;20038;-71
2021/12/20 01:48:55;;;;;;;27.27;4.85;;;8.80;99.90;;;;;;4955175;29;20034;-71
2021/12/20 01:53:57;;;;;;;24.40;3.65;;;8.80;99.90;;;;;;4956556;29;20043;-71
2021/12/20 01:56:23;;;;;;;22.42;3.72;;;8.80;99.90;;;;;;4956104;29;20110;-71
2021/12/20 01:58:49;;;;;;;17.35;2.20;;;8.80;99.90;;;;;;4956267;29;20461;-70
2021/12/20 02:03:46;;;;;;;20.48;3.42;;;8.80;99.90;;;;;;4956278;29;20448;-71
2021/12/20 02:06:21;;;;;;;29.70;3.75;;;8.80;99.90;;;;;;4956363;29;20027;-71
2021/12/20 02:08:48;;;;;;;15.95;3.35;;;8.80;99.90;;;;;;4956620;29;20038;-72
2021/12/20 02:11:13;;;;;;;18.10;2.80;;;8.80;99.90;;;;;;4955579;29;20070;-72
2021/12/20 02:13:40;;;;;;;16.83;3.22;;;8.80;99.90;;;;;;4956183;29;20422;-72
2021/12/20 02:16:07;;;;;;;15.23;2.30;;;8.80;99.90;;;;;;4938685;29;20450;-72
2021/12/20 02:18:33;;;;;;;25.38;3.97;;;8.80;99.90;;;;;;4955906;29;20128;-71
2021/12/20 02:20:59;;;;;;;18.23;3.17;;;8.80;99.90;;;;;;4954451;29;20106;-71
2021/12/20 02:23:25;;;;;;;23.30;3.60;;;8.90;99.90;;;;;;4955698;29;20467;-72
2021/12/20 02:25:51;;;;;;;18.05;2.72;;;8.90;99.90;;;;;;4955826;29;20046;-71
2021/12/20 02:28:19;;;;;;;17.02;2.72;;;8.90;99.90;;;;;;4955835;29;20370;-71
2021/12/20 02:36:56;;;;;;;19.13;3.05;;;8.90;99.90;;;;;;4955695;29;20039;-72
2021/12/20 02:39:16;;;;;;;16.95;2.40;;;8.80;99.90;;;;;;4955062;29;20054;-72
2021/12/20 02:41:42;;;;;;;21.20;2.67;;;8.80;99.90;;;;;;4955374;29;20027;-72
2021/12/20 02:44:16;;;;;;;14.77;2.75;;;8.80;99.90;;;;;;4955557;29;20529;-71
2021/12/20 02:49:19;;;;;;;19.65;3.95;;;8.80;99.90;;;;;;4955364;29;20024;-72
2021/12/20 02:51:46;;;;;;;20.35;2.50;;;8.80;99.90;;;;;;4955299;29;20101;-72
2021/12/20 02:54:13;;;;;;;16.73;2.28;;;8.80;99.90;;;;;;4955192;29;20089;-71
2021/12/20 02:56:39;;;;;;;15.13;3.75;;;8.70;99.90;;;;;;4955142;29;20035;-71
2021/12/20 02:59:06;;;;;;;17.92;2.25;;;8.70;99.90;;;;;;4954709;29;20077;-71
2021/12/20 03:01:33;;;;;;;19.98;2.65;;;8.70;99.90;;;;;;4955005;29;20035;-71
2021/12/20 03:04:00;;;;;;;12.95;2.05;;;8.70;99.90;;;;;;4954998;29;20093;-70
2021/12/20 03:06:29;;;;;;;17.20;2.47;;;8.80;99.90;;;;;;4954917;29;20424;-71
2021/12/20 03:08:56;;;;;;;22.88;3.17;;;8.80;99.90;;;;;;4955001;29;20042;-70
2021/12/20 03:11:26;;;;;;;16.80;2.63;;;8.80;99.90;;;;;;4954674;29;20081;-71
2021/12/20 03:14:05;;;;;;;16.60;3.97;;;8.80;99.90;;;;;;4955067;29;20059;-71
2021/12/20 03:16:31;;;;;;;15.70;2.83;;;8.80;99.90;;;;;;4955091;29;20115;-72
2021/12/20 03:18:56;;;;;;;15.60;2.50;;;8.80;99.90;;;;;;4954908;29;20172;-72
2021/12/20 03:21:22;;;;;;;13.40;3.08;;;8.80;99.90;;;;;;4954824;29;20129;-72
2021/12/20 03:23:47;;;;;;;18.13;3.13;;;8.80;99.90;;;;;;4954703;29;20027;-72
2021/12/20 03:26:13;;;;;;;19.48;2.83;;;8.80;99.90;;;;;;4954675;29;20058;-73
2021/12/20 03:28:39;;;;;;;17.42;2.50;;;8.70;99.90;;;;;;4954766;29;20043;-72
2021/12/20 03:31:04;;;;;;;17.65;2.33;;;8.70;99.90;;;;;;4954714;29;20046;-72
2021/12/20 03:33:30;;;;;;;17.77;2.70;;;8.70;99.90;;;;;;4954677;29;20031;-72
2021/12/20 03:35:56;;;;;;;13.80;2.30;;;8.70;99.90;;;;;;4954556;29;20031;-72
2021/12/20 03:38:21;;;;;;;21.45;2.80;;;8.60;99.90;;;;;;4954533;29;20526;-71
2021/12/20 03:40:47;;;;;;;15.70;2.47;;;8.60;99.90;;;;;;4954410;29;20031;-71
2021/12/20 03:43:13;;;;;;;15.23;2.15;;;8.60;99.90;;;;;;4954642;29;20027;-73
2021/12/20 03:45:40;;;;;;;16.98;2.50;;;8.60;99.90;;;;;;4954632;29;20059;-71
2021/12/20 03:48:06;;;;;;;17.00;3.60;;;8.60;99.90;;;;;;4954730;29;20043;-72
2021/12/20 03:50:32;;;;;;;15.80;2.15;;;8.60;99.90;;;;;;4953457;29;20078;-71
2021/12/20 03:52:57;;;;;;;17.95;2.95;;;8.50;99.90;;;;;;4953279;29;20027;-72
2021/12/20 03:55:23;;;;;;;16.83;2.28;;;8.50;99.90;;;;;;4954143;29;20038;-72
2021/12/20 03:57:49;;;;;;;22.85;3.13;;;8.60;99.90;;;;;;4954185;28;20020;-72
2021/12/20 04:00:16;;;;;;;16.45;2.58;;;8.60;99.90;;;;;;4954250;29;20038;-72
2021/12/20 04:02:45;;;;;;;21.25;3.72;;;8.60;99.90;;;;;;4954248;29;20376;-71
2021/12/20 04:05:12;;;;;;;17.02;3.05;;;8.60;99.90;;;;;;4954552;29;20389;-72
2021/12/20 04:07:38;;;;;;;20.00;3.38;;;8.50;99.90;;;;;;4954401;29;20027;-71
2021/12/20 04:10:05;;;;;;;20.98;2.55;;;8.60;99.90;;;;;;4954274;29;20054;-71
2021/12/20 04:12:31;;;;;;;16.05;2.97;;;8.60;99.90;;;;;;4954456;29;20038;-71
2021/12/20 04:14:56;;;;;;;17.08;2.47;;;8.60;99.90;;;;;;4954327;29;20106;-72
2021/12/20 04:17:22;;;;;;;16.33;2.40;;;8.60;99.90;;;;;;4953136;29;20112;-71
2021/12/20 04:19:48;;;;;;;22.42;2.75;;;8.60;99.90;;;;;;4954032;29;20028;-71
2021/12/20 04:22:15;;;;;;;18.08;2.80;;;8.60;99.90;;;;;;4952839;29;20114;-72
2021/12/20 04:24:41;;;;;;;19.83;4.45;;;8.60;99.90;;;;;;4953938;29;20386;-72
2021/12/20 04:27:07;;;;;;;16.40;2.33;;;8.60;99.90;;;;;;4954289;29;20031;-72
2021/12/20 04:29:33;;;;;;;16.42;2.63;;;8.60;99.90;;;;;;4954125;29;20039;-72
2021/12/20 04:31:59;;;;;;;18.35;2.38;;;8.60;99.90;;;;;;4954178;29;20035;-72
2021/12/20 04:34:25;;;;;;;16.17;2.13;;;8.60;99.90;;;;;;4953714;29;20028;-72
2021/12/20 04:36:51;;;;;;;17.88;2.63;;;8.60;99.90;;;;;;4954342;29;20043;-72
2021/12/20 04:39:20;;;;;;;15.38;2.53;;;8.60;99.90;;;;;;4954120;29;20030;-72
2021/12/20 04:41:46;;;;;;;14.00;2.15;;;8.60;99.90;;;;;;4954173;29;20070;-72
2021/12/20 04:44:12;;;;;;;11.88;2.20;;;8.60;99.90;;;;;;4954105;29;20027;-72
2021/12/20 04:46:37;;;;;;;16.45;2.80;;;8.60;99.90;;;;;;4953885;29;20111;-72
2021/12/20 04:49:04;;;;;;;15.68;2.92;;;8.60;99.90;;;;;;4953847;29;20034;-72
2021/12/20 04:51:29;;;;;;;19.50;2.28;;;8.60;99.90;;;;;;4953614;29;20110;-72
2021/12/20 04:53:55;;;;;;;23.10;3.08;;;8.70;99.90;;;;;;4954031;29;20130;-71
2021/12/20 04:56:20;;;;;;;11.90;3.10;;;8.60;99.90;;;;;;4953829;29;20058;-72
2021/12/20 04:58:46;;;;;;;14.23;2.85;;;8.60;99.90;;;;;;4953515;29;20055;-72
2021/12/20 05:01:12;;;;;;;24.92;2.75;;;8.60;99.90;;;;;;4955157;28;20078;-72
2021/12/20 05:03:37;;;;;;;12.25;1.90;;;8.60;99.90;;;;;;4957719;29;20353;-72
2021/12/20 05:06:03;;;;;;;7.75;2.08;;;8.70;99.90;;;;;;4957182;29;20039;-72
2021/12/20 05:08:34;;;;;;;14.75;1.95;;;8.70;99.90;;;;;;4957091;29;20039;-72
2021/12/20 05:11:03;;;;;;;19.88;2.50;;;8.60;99.90;;;;;;4957107;29;20035;-71
2021/12/20 05:13:29;;;;;;;20.08;2.95;;;8.70;99.90;;;;;;4956987;29;20121;-71
2021/12/20 05:15:54;;;;;;;14.73;1.90;;;8.60;99.90;;;;;;4956957;29;20035;-72
2021/12/20 05:18:20;;;;;;;20.55;2.83;;;8.60;99.90;;;;;;4957338;29;20020;-72
2021/12/20 05:20:46;;;;;;;15.85;2.15;;;8.70;99.90;;;;;;4956661;29;20166;-71
2021/12/20 05:23:11;;;;;;;11.32;1.80;;;8.60;99.90;;;;;;4957246;29;20490;-71
2021/12/20 05:25:38;;;;;;;15.38;2.53;;;8.60;99.90;;;;;;4956983;29;20059;-71
2021/12/20 05:28:05;;;;;;;9.90;2.38;;;8.60;99.90;;;;;;4956865;29;20031;-70
2021/12/20 05:30:31;;;;;;;10.07;1.90;;;8.60;99.90;;;;;;4956869;29;20071;-71
2021/12/20 05:32:56;;;;;;;11.63;2.00;;;8.60;99.90;;;;;;4956705;29;20121;-71
2021/12/20 05:35:23;;;;;;;12.80;2.03;;;8.60;99.90;;;;;;4955379;29;20383;-72
2021/12/20 05:37:50;;;;;;;9.75;2.15;;;8.60;99.90;;;;;;4956804;29;20024;-71
2021/12/20 05:40:17;;;;;;;16.23;2.70;;;8.60;99.90;;;;;;4939401;29;20086;-71
2021/12/20 05:42:45;;;;;;;14.55;2.33;;;8.60;99.90;;;;;;4956731;29;20027;-71
2021/12/20 05:45:11;;;;;;;15.75;1.90;;;8.60;99.90;;;;;;4956698;29;20033;-72
2021/12/20 05:47:37;;;;;;;13.90;2.03;;;8.50;99.90;;;;;;4956332;29;20076;-72
2021/12/20 05:50:05;;;;;;;17.45;2.60;;;8.50;99.90;;;;;;4956458;29;20561;-71
2021/12/20 05:52:30;;;;;;;13.30;2.28;;;8.50;99.90;;;;;;4956033;29;20467;-72
2021/12/20 05:54:56;;;;;;;13.30;2.47;;;8.50;99.90;;;;;;4956550;29;20041;-71
2021/12/20 05:57:22;;;;;;;14.55;2.55;;;8.40;99.90;;;;;;4955146;29;20030;-72
2021/12/20 05:59:48;;;;;;;8.77;1.70;;;8.40;99.90;;;;;;4956220;28;20083;-72
2021/12/20 06:02:14;;;;;;;16.50;2.13;;;8.40;99.90;;;;;;4956209;29;20058;-71
2021/12/20 06:04:39;;;;;;;10.88;1.65;;;8.40;99.90;;;;;;4956039;29;20023;-71
2021/12/20 06:07:05;;;;;;;7.95;1.45;;;8.40;99.90;;;;;;4956322;29;20038;-70
2021/12/20 06:09:31;;;;;;;17.38;2.50;;;8.50;99.90;;;;;;4956266;29;20034;-73
2021/12/20 06:11:59;;;;;;;16.33;2.30;;;8.50;99.90;;;;;;4955535;28;20051;-72
2021/12/20 06:14:26;;;;;;;11.18;1.83;;;8.50;99.90;;;;;;4955947;29;20464;-70
2021/12/20 06:16:52;;;;;;;11.82;2.20;;;8.60;99.90;;;;;;4956010;29;20039;-71
2021/12/20 06:19:18;;;;;;;14.13;2.40;;;8.60;99.90;;;;;;4955835;29;20042;-70
2021/12/20 06:21:43;;;;;;;10.60;2.00;;;8.60;99.90;;;;;;4955859;29;20027;-71
2021/12/20 06:24:09;;;;;;;12.25;2.10;;;8.60;99.90;;;;;;4955995;29;20531;-70
2021/12/20 06:26:34;;;;;;;12.00;1.85;;;8.60;99.90;;;;;;4956111;29;20031;-72
2021/12/20 06:29:00;;;;;;;12.13;1.98;;;8.60;99.90;;;;;;4955780;29;20162;-73
2021/12/20 06:31:26;;;;;;;15.98;2.05;;;8.60;99.90;;;;;;4955407;29;20395;-72
2021/12/20 06:33:51;;;;;;;13.45;2.20;;;8.60;99.90;;;;;;4955314;29;20039;-72
2021/12/20 06:36:18;;;;;;;10.77;1.48;;;8.60;99.90;;;;;;4955750;29;20031;-72
2021/12/20 06:38:46;;;;;;;12.98;1.55;;;8.60;99.90;;;;;;4955570;29;20110;-73
2021/12/20 06:41:12;;;;;;;13.60;1.90;;;8.60;99.90;;;;;;4955586;29;20105;-70
2021/12/20 06:43:38;;;;;;;11.30;2.70;;;8.60;99.90;;;;;;4955782;29;20027;-70
2021/12/20 06:46:04;;;;;;;16.75;2.22;;;8.60;99.90;;;;;;4938020;29;20027;-70
2021/12/20 06:48:29;;;;;;;9.98;1.60;;;8.50;99.90;;;;;;4955418;29;20051;-71
2021/12/20 06:50:55;;;;;;;17.33;2.53;;;8.50;99.90;;;;;;4955733;29;20042;-70
2021/12/20 06:53:21;;;;;;;12.57;1.85;;;8.40;99.90;;;;;;4955287;29;20032;-69
2021/12/20 06:55:46;;;;;;;10.82;1.92;;;8.40;99.90;;;;;;4955289;29;20034;-70
2021/12/20 06:58:12;;;;;;;13.70;2.35;;;8.30;99.90;;;;;;4955129;29;20066;-70
2021/12/20 07:00:38;;;;;;;14.07;2.42;;;8.20;99.90;;;;;;4955086;29;20046;-70
2021/12/20 07:03:04;;;;;;;9.93;1.83;;;8.10;99.90;;;;;;4955109;29;20103;-70
2021/12/20 07:05:29;;;;;;;11.80;1.45;;;8.00;99.90;;;;;;4955291;29;20031;-71
2021/12/20 07:07:55;;;;;;;9.75;1.60;;;7.90;99.90;;;;;;4955392;29;20029;-71
2021/12/20 07:10:21;;;;;;;16.85;2.00;;;7.80;99.90;;;;;;4954990;29;20046;-72
2021/12/20 07:12:47;;;;;;;14.75;2.17;;;7.70;99.90;;;;;;4955050;29;20386;-71
2021/12/20 07:15:14;;;;;;;17.13;2.42;;;7.70;99.90;;;;;;4955056;29;20033;-72
2021/12/20 07:17:41;;;;;;;12.32;1.45;;;7.60;99.90;;;;;;4955258;29;20027;-71
2021/12/20 07:20:08;;;;;;;9.35;1.45;;;7.60;99.90;;;;;;4955305;29;20031;-72
2021/12/20 07:22:33;;;;;;;12.50;1.85;;;7.60;99.90;;;;;;4954978;29;20035;-72
2021/12/20 07:25:00;;;;;;;17.02;2.65;;;7.60;99.90;;;;;;4955144;28;20349;-72
2021/12/20 07:27:26;;;;;;;11.40;1.95;;;7.50;99.90;;;;;;4954988;29;20027;-72
2021/12/20 07:29:52;;;;;;;8.10;1.60;;;7.50;99.90;;;;;;4954913;29;20027;-72
2021/12/20 07:32:17;;;;;;;12.93;2.90;;;7.40;99.90;;;;;;4954990;29;20106;-72
2021/12/20 07:34:43;;;;;;;16.05;2.65;;;7.40;99.90;;;;;;4954952;29;20110;-73
2021/12/20 07:37:09;;;;;;;17.88;2.65;;;7.40;99.90;;;;;;4954115;28;20031;-72
2021/12/20 07:39:35;;;;;;;10.13;1.95;;;7.40;99.90;;;;;;4954438;29;20114;-71
2021/12/20 07:42:01;;;;;;;9.05;1.83;;;7.30;99.90;;;;;;4954727;29;20029;-72
2021/12/20 07:44:27;;;;;;;15.45;2.25;;;7.30;99.90;;;;;;4954379;29;20059;-72
2021/12/20 07:46:54;;;;;;;16.98;1.75;;;7.20;99.90;;;;;;4955056;29;20058;-73
2021/12/20 07:49:19;;;;;;;12.13;1.85;;;7.20;99.90;;;;;;4954533;29;20035;-72
2021/12/20 07:51:45;;;;;;;14.10;2.08;;;7.20;99.90;;;;;;4953271;29;20055;-72
2021/12/20 07:54:11;;;;;;;13.95;2.13;;;7.20;99.90;;;;;;4954673;29;20055;-72
2021/12/20 07:56:37;;;;;;;19.02;2.33;;;7.30;99.90;;;;;;4954899;29;20092;-72
2021/12/20 07:59:03;;;;;;;16.63;2.63;;;7.30;99.90;;;;;;4954092;29;20406;-71
2021/12/20 08:01:34;;;;;;;7.82;1.33;;;7.30;99.90;;;;;;4954254;29;20027;-72
2021/12/20 08:04:01;;;;;;;10.82;1.80;;;7.40;99.90;;;;;;4953080;29;20035;-71
2021/12/20 08:06:27;;;;;;;13.65;2.33;;;7.40;99.90;;;;;;4954505;29;20031;-72
2021/12/20 08:08:52;;;;;;;16.38;2.35;;;7.40;99.90;;;;;;4954487;29;20356;-71
2021/12/20 08:11:18;;;;;;;11.95;2.28;;;7.50;99.90;;;;;;4954106;29;20047;-71
2021/12/20 08:13:46;;;;;;;17.23;2.88;;;7.50;99.90;;;;;;4954153;29;20390;-71
2021/12/20 08:16:15;;;;;;;16.38;2.85;;;7.50;99.90;;;;;;4954695;29;20032;-71
2021/12/20 08:18:42;;;;;;;17.85;3.42;;;7.60;99.90;;;;;;4954416;29;20241;-70
2021/12/20 08:21:08;;;;;;;12.55;2.22;;;7.60;99.90;;;;;;4954643;29;20383;-72
2021/12/20 08:23:34;;;;;;;15.10;3.08;;;7.60;99.90;;;;;;4954773;29;20082;-70
2021/12/20 08:26:00;;;;;;;10.98;2.10;;;7.60;99.90;;;;;;4953961;29;20031;-71
2021/12/20 08:28:27;;;;;;;10.60;2.50;;;7.60;99.90;;;;;;4953968;29;20061;-70
2021/12/20 08:30:53;;;;;;;13.35;3.30;;;7.60;99.90;;;;;;4954109;29;20037;-72
2021/12/20 08:33:19;;;;;;;19.52;4.07;;;7.60;99.90;;;;;;4954137;29;20031;-72
2021/12/20 08:35:49;;;;;;;13.02;3.85;;;7.60;99.90;;;;;;4954524;28;20027;-71
2021/12/20 08:38:18;;;;;;;20.20;5.25;;;7.70;99.90;;;;;;4957745;29;20027;-71
2021/12/20 08:40:44;;;;;;;24.60;6.25;;;7.70;99.90;;;;;;4957225;29;20027;-71
2021/12/20 08:43:09;;;;;;;14.40;4.78;;;7.70;99.90;;;;;;4950441;28;20031;-71
2021/12/20 08:45:35;;;;;;;17.00;4.38;;;7.80;99.90;;;;;;4951269;29;20033;-72
2021/12/20 08:48:01;;;;;;;15.25;4.22;;;7.80;99.90;;;;;;4940051;28;20032;-71
2021/12/20 08:50:26;;;;;;;17.52;3.72;;;7.90;99.90;;;;;;4938475;29;20043;-72
2021/12/20 08:52:52;;;;;;;12.27;3.50;;;7.90;99.90;;;;;;4938328;29;20067;-71
2021/12/20 08:55:18;;;;;;;9.90;2.58;;;7.90;99.90;;;;;;4938149;29;20451;-72
2021/12/20 08:57:44;;;;;;;11.57;2.20;;;7.90;99.90;;;;;;4938264;29;20042;-71
2021/12/20 09:00:18;;;;;;;13.02;2.40;;;8.00;99.90;;;;;;4937927;29;20040;-71
2021/12/20 09:02:43;;;;;;;15.85;2.40;;;8.00;99.90;;;;;;4938329;29;20031;-71
2021/12/20 09:05:09;;;;;;;14.13;2.45;;;7.90;99.90;;;;;;4938274;29;20032;-71
2021/12/20 09:07:36;;;;;;;18.77;3.35;;;7.90;99.90;;;;;;4937809;29;20055;-71
2021/12/20 09:10:03;;;;;;;13.65;3.33;;;7.90;99.90;;;;;;4937813;29;20036;-72
2021/12/20 09:12:29;;;;;;;11.00;3.28;;;8.00;99.90;;;;;;4937652;29;20543;-71
2021/12/20 09:14:55;;;;;;;11.57;2.90;;;8.10;99.90;;;;;;4938123;29;20039;-72
2021/12/20 09:17:20;;;;;;;14.68;3.42;;;8.10;99.90;;;;;;4946276;28;20051;-72
2021/12/20 09:19:46;;;;;;;9.55;2.58;;;8.20;99.90;;;;;;4956626;29;20023;-71
2021/12/20 09:22:12;;;;;;;12.20;3.05;;;8.30;99.90;;;;;;4956103;28;20038;-71
2021/12/20 09:24:39;;;;;;;12.98;4.03;;;8.40;99.90;;;;;;4955166;29;20031;-71
2021/12/20 09:27:05;;;;;;;12.10;2.67;;;8.40;99.90;;;;;;4956613;28;20070;-71
2021/12/20 09:29:31;;;;;;;14.95;3.20;;;8.50;99.90;;;;;;4956466;28;20043;-71
2021/12/20 09:31:58;;;;;;;16.98;2.85;;;8.60;99.90;;;;;;4956460;28;20134;-72
2021/12/20 09:34:24;;;;;;;11.25;2.15;;;8.60;99.90;;;;;;4955940;28;20395;-71
2021/12/20 09:36:52;;;;;;;14.80;2.80;;;8.60;99.90;;;;;;4955867;29;20031;-71
2021/12/20 09:39:18;;;;;;;12.75;2.25;;;8.70;99.90;;;;;;4941717;29;20471;-72
2021/12/20 09:44:11;;;;;;;9.35;1.63;;;8.80;99.90;;;;;;4956751;29;20035;-71
2021/12/20 09:46:39;;;;;;;5.05;1.73;;;8.80;99.90;;;;;;4956574;28;20518;-71
2021/12/20 09:49:06;;;;;;;12.93;2.05;;;8.70;99.90;;;;;;4955286;28;20034;-72
2021/12/20 09:51:32;;;;;;;10.30;1.98;;;8.70;99.90;;;;;;4956138;29;20074;-71
2021/12/20 09:53:58;;;;;;;13.05;2.35;;;8.70;99.90;;;;;;4956669;28;20054;-71
2021/12/20 09:56:27;;;;;;;11.25;2.08;;;8.80;99.90;;;;;;4960899;28;20027;-71
2021/12/20 09:58:55;;;;;;;7.35;2.20;;;8.80;99.90;;;;;;4968110;28;20046;-71
2021/12/20 10:01:23;;;;;;;10.38;2.08;;;8.90;99.90;;;;;;4956311;29;20035;-72
2021/12/20 10:03:49;;;;;;;9.93;1.98;;;8.90;99.90;;;;;;4956203;28;20038;-71
2021/12/20 10:06:15;;;;;;;7.38;2.15;;;9.00;99.90;;;;;;4955863;29;20031;-71
2021/12/20 10:08:50;;;;;;;9.50;2.10;;;9.10;99.90;;;;;;4960675;28;20063;-71
2021/12/20 10:11:29;;;;;;;3.67;1.65;;;9.10;99.90;;;;;;4937069;29;20126;-71
2021/12/20 10:14:09;;;;;;;8.23;2.45;;;9.30;99.90;;;;;;4960574;28;20125;-72
2021/12/20 10:16:37;;;;;;;10.32;2.13;;;9.30;99.90;;;;;;4973364;28;20094;-71
2021/12/20 10:19:04;;;;;;;7.25;1.90;;;9.50;99.90;;;;;;4973894;28;20035;-71
2021/12/20 10:21:41;;;;;;;9.93;2.30;;;9.60;99.90;;;;;;4960857;28;20035;-71
2021/12/20 10:24:07;;;;;;;8.95;1.80;;;9.70;99.90;;;;;;4968508;28;20034;-71
2021/12/20 10:26:42;;;;;;;5.93;1.60;;;9.80;99.90;;;;;;4973865;28;20073;-71
2021/12/20 10:29:19;;;;;;;8.30;1.98;;;9.90;99.90;;;;;;4936674;29;20031;-71
2021/12/20 10:31:45;;;;;;;7.68;2.33;;;10.00;99.90;;;;;;4936350;29;20078;-71
2021/12/20 10:34:11;;;;;;;8.68;2.00;;;10.10;99.90;;;;;;4959494;28;20070;-71
2021/12/20 10:36:48;;;;;;;5.65;1.80;;;10.10;99.90;;;;;;4970168;28;20106;-71
2021/12/20 10:39:14;;;;;;;9.20;1.80;;;10.00;99.90;;;;;;4970367;28;20034;-71
2021/12/20 10:41:49;;;;;;;6.70;1.40;;;9.90;99.90;;;;;;4973335;28;20474;-72
2021/12/20 10:44:18;;;;;;;7.38;1.80;;;9.80;99.90;;;;;;4973695;28;20430;-71
2021/12/20 10:46:53;;;;;;;11.68;2.42;;;9.70;99.90;;;;;;4955484;28;20039;-71
2021/12/20 10:49:25;;;;;;;8.23;2.28;;;9.60;99.90;;;;;;4958763;28;20035;-71
2021/12/20 10:51:54;;;;;;;7.18;1.60;;;9.60;99.90;;;;;;4956301;28;20421;-72
2021/12/20 10:54:22;;;;;;;5.15;1.38;;;9.60;99.90;;;;;;4956845;28;20493;-71
2021/12/20 10:56:56;;;;;;;8.20;1.50;;;9.60;99.90;;;;;;4972633;28;20530;-71
2021/12/20 10:59:24;;;;;;;3.38;1.00;;;9.50;99.90;;;;;;4956422;28;20452;-71
2021/12/20 11:04:46;;;;;;;4.85;1.10;;;9.40;99.90;;;;;;4964298;28;20045;-71
2021/12/20 11:10:00;;;;;;;4.65;1.00;;;9.20;99.90;;;;;;4954348;28;20530;-71
2021/12/20 11:12:31;;;;;;;5.30;0.95;;;9.40;99.90;;;;;;4954666;28;20098;-71
2021/12/20 11:15:00;;;;;;;5.65;1.00;;;9.50;99.90;;;;;;4954686;28;20031;-72
2021/12/20 11:17:28;;;;;;;4.07;1.30;;;9.60;99.90;;;;;;4954539;28;20118;-71
2021/12/20 11:19:56;;;;;;;11.00;2.55;;;9.80;99.90;;;;;;4954454;28;20031;-72
2021/12/20 11:22:24;;;;;;;12.48;3.15;;;10.00;99.90;;;;;;4954758;29;20023;-72
2021/12/20 11:24:54;;;;;;;12.32;2.95;;;10.30;99.90;;;;;;4954701;29;20023;-71
2021/12/20 11:27:29;;;;;;;5.95;1.67;;;10.80;99.90;;;;;;4952185;28;20029;-72
2021/12/20 11:29:56;;;;;;;22.77;5.38;;;11.20;99.90;;;;;;4953422;28;20024;-72
2021/12/20 11:32:24;;;;;;;9.25;1.52;;;11.50;99.90;;;;;;4953237;28;20077;-71
2021/12/20 11:34:50;;;;;;;4.85;1.00;;;11.70;99.90;;;;;;4953710;28;20101;-72
2021/12/20 11:37:21;;;;;;;7.07;1.20;;;11.80;99.90;;;;;;4952863;28;20143;-72
2021/12/20 11:39:48;;;;;;;3.67;1.08;;;11.80;99.90;;;;;;4954078;28;20401;-72
2021/12/20 11:42:15;;;;;;;4.72;0.98;;;11.70;99.90;;;;;;4952992;28;20030;-72
2021/12/20 11:44:45;;;;;;;7.43;1.02;;;11.50;99.90;;;;;;4934361;29;20118;-71
2021/12/20 11:47:36;;;;;;;7.40;1.13;;;11.30;99.90;;;;;;4935360;29;20032;-71
2021/12/20 11:50:06;;;;;;;7.10;1.40;;;11.10;99.90;;;;;;4934494;29;20075;-71
2021/12/20 11:52:33;;;;;;;4.32;1.02;;;10.80;99.90;;;;;;4934021;29;20440;-71
2021/12/20 11:55:13;;;;;;;6.03;0.98;;;10.60;99.90;;;;;;4932809;29;20028;-71
2021/12/20 11:57:42;;;;;;;5.95;1.05;;;10.50;99.90;;;;;;4934957;29;20095;-70
2021/12/20 12:00:17;;;;;;;5.72;1.27;;;10.30;99.90;;;;;;4934760;29;20491;-71
2021/12/20 12:02:44;;;;;;;5.22;0.98;;;10.00;99.90;;;;;;4934745;29;20028;-71
2021/12/20 12:05:12;;;;;;;5.25;1.77;;;10.00;99.90;;;;;;4935143;29;20024;-71
2021/12/20 12:07:40;;;;;;;8.48;1.77;;;9.90;99.90;;;;;;4933580;29;20083;-71
2021/12/20 12:10:07;;;;;;;5.00;1.10;;;9.80;99.90;;;;;;4935182;29;20059;-70
2021/12/20 12:12:39;;;;;;;4.72;1.27;;;9.80;99.90;;;;;;4938776;29;20032;-70
2021/12/20 12:15:10;;;;;;;;;;;9.80;99.90;;;;;;4939275;29;20123;-70
2021/12/20 12:17:55;;;;;;;3.72;0.98;;;9.70;99.90;;;;;;4938694;29;19911;-71
2021/12/20 12:20:52;;;;;;;6.00;1.60;;;9.60;99.90;;;;;;4937922;29;20308;-71
2021/12/20 12:23:26;;;;;;;8.38;1.80;;;9.50;99.90;;;;;;4938728;29;20043;-71
2021/12/20 12:25:55;;;;;;;6.50;1.45;;;9.50;99.90;;;;;;4937433;29;20032;-71
2021/12/20 12:28:27;;;;;;;6.63;1.42;;;9.40;99.90;;;;;;4938503;29;20032;-72
2021/12/20 12:31:07;;;;;;;6.05;1.50;;;9.40;99.90;;;;;;4938979;29;20035;-71
2021/12/20 12:33:40;;;;;;;5.93;1.52;;;9.40;99.90;;;;;;4938286;29;20116;-71
2021/12/20 12:36:30;;;;;;;8.25;1.90;;;9.40;99.90;;;;;;4947267;29;20031;-71
2021/12/20 12:38:59;;;;;;;6.95;1.52;;;9.30;99.90;;;;;;4957942;29;20073;-71
2021/12/20 12:41:31;;;;;;;5.70;0.95;;;9.30;99.90;;;;;;4957440;29;20023;-71
2021/12/20 12:44:05;;;;;;;6.78;1.17;;;9.30;99.90;;;;;;4957547;29;20513;-71
2021/12/20 12:46:41;;;;;;;14.48;1.45;;;9.30;99.90;;;;;;4957397;29;20035;-71
2021/12/20 12:49:21;;;;;;;10.25;1.95;;;9.30;99.90;;;;;;4957906;29;20023;-72
2021/12/20 12:52:04;;;;;;;5.18;1.02;;;9.20;99.90;;;;;;4938390;29;20039;-71
2021/12/20 12:54:33;;;;;;;6.18;1.38;;;9.20;99.90;;;;;;4947173;29;20106;-71
2021/12/20 12:57:10;;;;;;;5.88;0.85;;;9.20;99.90;;;;;;4952307;29;20039;-72
2021/12/20 12:59:42;;;;;;;8.80;1.30;;;9.20;99.90;;;;;;4939739;29;20119;-72
2021/12/20 13:02:30;;;;;;;4.45;0.90;;;9.30;99.90;;;;;;4920288;29;20055;-72
2021/12/20 13:05:22;;;;;;;8.63;1.35;;;9.30;99.90;;;;;;4938065;29;20468;-72
2021/12/20 13:07:54;;;;;;;7.28;1.83;;;9.30;99.90;;;;;;4938367;29;20046;-71
2021/12/20 13:10:38;;;;;;;13.25;1.88;;;9.30;99.90;;;;;;4938020;29;20112;-72
2021/12/20 13:13:24;;;;;;;6.85;1.20;;;9.30;99.90;;;;;;4937225;29;20032;-71
2021/12/20 13:15:59;;;;;;;6.50;1.23;;;9.30;99.90;;;;;;4930686;29;20031;-72
2021/12/20 13:18:32;;;;;;;4.25;1.23;;;9.30;99.90;;;;;;4938143;29;20027;-71